createdAt,value
2023-02-17T00:01:40.621Z,48.90
2023-02-17T00:04:09.294Z,48.90
2023-02-17T00:06:37.977Z,48.90
2023-02-17T00:09:07.626Z,48.90
2023-02-17T00:11:36.251Z,49.00
2023-02-17T00:14:06.390Z,49.70
2023-02-17T00:16:35.262Z,49.10
2023-02-17T00:19:24.847Z,49.10
2023-02-17T00:21:55.779Z,49.20
2023-02-17T00:24:24.550Z,49.10
2023-02-17T00:26:53.335Z,49.10
2023-02-17T00:29:24.231Z,49.10
2023-02-17T00:31:54.706Z,49.20
2023-02-17T00:34:25.031Z,49.20
2023-02-17T00:36:54.047Z,49.20
2023-02-17T00:39:22.894Z,49.20
2023-02-17T00:41:51.939Z,49.30
2023-02-17T00:44:25.267Z,49.30
2023-02-17T00:46:54.012Z,49.40
2023-02-17T00:49:25.269Z,49.40
2023-02-17T00:51:54.671Z,49.40
2023-02-17T00:54:23.353Z,49.40
2023-02-17T00:56:51.996Z,49.50
2023-02-17T00:59:20.827Z,49.40
2023-02-17T01:01:50.821Z,49.50
2023-02-17T01:04:19.458Z,49.50
2023-02-17T01:06:48.264Z,49.50
2023-02-17T01:09:17.207Z,49.50
2023-02-17T01:11:45.843Z,49.50
2023-02-17T01:14:16.062Z,49.60
2023-02-17T01:16:49.209Z,49.60
2023-02-17T01:19:20.998Z,49.70
2023-02-17T01:21:50.473Z,49.70
2023-02-17T01:24:19.192Z,49.70
2023-02-17T01:26:48.108Z,49.70
2023-02-17T01:29:16.811Z,49.70
2023-02-17T01:31:46.061Z,49.70
2023-02-17T01:34:14.827Z,49.80
2023-02-17T01:36:44.851Z,50.40
2023-02-17T01:39:15.787Z,49.80
2023-02-17T01:41:45.560Z,49.80
2023-02-17T01:44:18.101Z,49.80
2023-02-17T01:46:49.200Z,49.90
2023-02-17T01:49:34.944Z,49.80
2023-02-17T01:52:12.334Z,49.90
2023-02-17T01:54:46.943Z,49.90
2023-02-17T01:57:20.060Z,49.80
2023-02-17T01:59:49.195Z,49.80
2023-02-17T02:02:18.578Z,49.80
2023-02-17T02:04:50.981Z,49.80
2023-02-17T02:07:25.751Z,49.90
2023-02-17T02:09:57.389Z,49.90
2023-02-17T02:12:29.836Z,49.90
2023-02-17T02:15:05.155Z,49.90
2023-02-17T02:17:42.814Z,49.90
2023-02-17T02:20:41.347Z,49.90
2023-02-17T02:23:49.919Z,49.90
2023-02-17T02:27:30.493Z,49.90
2023-02-17T02:30:43.938Z,49.90
2023-02-17T02:33:25.119Z,49.80
2023-02-17T02:36:01.131Z,49.80
2023-02-17T02:38:36.941Z,49.80
2023-02-17T02:41:11.966Z,49.80
2023-02-17T02:43:41.136Z,49.90
2023-02-17T02:46:10.691Z,49.80
2023-02-17T02:48:42.083Z,49.90
2023-02-17T02:51:30.237Z,49.90
2023-02-17T02:54:29.113Z,50.00
2023-02-17T02:57:32.793Z,50.10
2023-02-17T03:00:13.865Z,50.10
2023-02-17T03:02:52.452Z,50.00
2023-02-17T03:05:34.838Z,50.00
2023-02-17T03:08:10.038Z,50.00
2023-02-17T03:10:47.823Z,50.00
2023-02-17T03:13:17.023Z,50.20
2023-02-17T03:15:46.772Z,50.00
2023-02-17T03:18:15.509Z,50.10
2023-02-17T03:20:53.060Z,50.10
2023-02-17T03:23:22.067Z,50.30
2023-02-17T03:25:51.120Z,50.20
2023-02-17T03:28:19.789Z,50.20
2023-02-17T03:30:49.371Z,50.30
2023-02-17T03:33:18.069Z,50.30
2023-02-17T03:35:48.080Z,50.30
2023-02-17T03:38:16.792Z,50.40
2023-02-17T03:40:45.452Z,50.40
2023-02-17T03:43:14.702Z,50.40
2023-02-17T03:45:43.607Z,51.10
2023-02-17T03:48:12.203Z,50.40
2023-02-17T03:50:40.860Z,50.50
2023-02-17T03:53:12.597Z,50.50
2023-02-17T03:55:41.239Z,50.60
2023-02-17T03:58:09.910Z,50.50
2023-02-17T04:00:38.676Z,50.50
2023-02-17T04:03:07.755Z,50.60
2023-02-17T04:05:36.355Z,50.60
2023-02-17T04:08:05.031Z,50.60
2023-02-17T04:10:34.984Z,50.70
2023-02-17T04:13:03.663Z,50.80
2023-02-17T04:15:32.340Z,50.70
2023-02-17T04:18:00.978Z,50.80
2023-02-17T04:20:29.772Z,50.80
2023-02-17T04:22:58.388Z,50.80
2023-02-17T04:25:27.033Z,50.90
2023-02-17T04:27:57.081Z,50.90
2023-02-17T04:30:25.717Z,51.00
2023-02-17T04:32:54.429Z,51.00
2023-02-17T04:35:23.459Z,51.10
2023-02-17T04:37:52.473Z,51.20
2023-02-17T04:40:21.759Z,51.20
2023-02-17T04:42:50.416Z,51.20
2023-02-17T04:45:20.682Z,51.30
2023-02-17T04:47:49.300Z,51.30
2023-02-17T04:50:19.539Z,51.30
2023-02-17T04:52:49.754Z,51.30
2023-02-17T04:55:18.558Z,51.40
2023-02-17T04:57:47.225Z,51.40
2023-02-17T05:00:16.648Z,51.40
2023-02-17T05:02:46.735Z,51.40
2023-02-17T05:05:16.011Z,51.50
2023-02-17T05:07:44.837Z,51.50
2023-02-17T05:10:14.237Z,51.50
2023-02-17T05:12:43.163Z,51.60
2023-02-17T05:15:13.598Z,51.60
2023-02-17T05:17:42.433Z,51.60
2023-02-17T05:20:13.180Z,51.60
2023-02-17T05:22:41.870Z,51.70
2023-02-17T05:25:10.677Z,51.70
2023-02-17T05:27:39.334Z,51.60
2023-02-17T05:30:09.235Z,51.80
2023-02-17T05:32:37.829Z,51.80
2023-02-17T05:35:07.205Z,51.80
2023-02-17T05:37:37.345Z,51.80
2023-02-17T05:40:08.034Z,51.90
2023-02-17T05:42:36.615Z,51.80
2023-02-17T05:45:05.530Z,51.90
2023-02-17T05:47:35.563Z,51.80
2023-02-17T05:50:04.757Z,51.90
2023-02-17T05:52:33.571Z,51.90
2023-02-17T05:55:04.821Z,51.90
2023-02-17T05:57:33.930Z,52.70
2023-02-17T06:00:02.678Z,52.00
2023-02-17T06:02:40.745Z,52.00
2023-02-17T06:05:10.529Z,52.00
2023-02-17T06:07:39.320Z,52.10
2023-02-17T06:10:10.930Z,52.10
2023-02-17T06:12:39.617Z,52.20
2023-02-17T06:15:09.284Z,52.10
2023-02-17T06:17:39.068Z,52.20
2023-02-17T06:20:10.006Z,52.20
2023-02-17T06:22:38.599Z,52.20
2023-02-17T06:25:09.151Z,52.20
2023-02-17T06:27:37.869Z,52.40
2023-02-17T06:30:08.360Z,52.30
2023-02-17T06:32:37.060Z,52.30
2023-02-17T06:35:06.120Z,52.30
2023-02-17T06:37:34.769Z,52.40
2023-02-17T06:40:03.500Z,52.40
2023-02-17T06:42:33.661Z,52.40
2023-02-17T06:45:05.503Z,52.60
2023-02-17T06:47:34.293Z,52.50
2023-02-17T06:50:02.964Z,52.50
2023-02-17T06:52:31.656Z,52.60
2023-02-17T06:55:00.349Z,52.60
2023-02-17T06:57:29.462Z,52.70
2023-02-17T06:59:59.461Z,52.70
2023-02-17T07:02:28.563Z,52.80
2023-02-17T07:04:57.222Z,52.70
2023-02-17T07:07:26.028Z,52.80
2023-02-17T07:09:54.627Z,52.80
2023-02-17T07:12:23.214Z,52.80
2023-02-17T07:14:51.884Z,52.90
2023-02-17T07:17:21.995Z,52.80
2023-02-17T07:19:50.649Z,53.00
2023-02-17T07:22:19.299Z,52.90
2023-02-17T07:24:50.862Z,53.00
2023-02-17T07:27:19.567Z,53.00
2023-02-17T07:29:48.199Z,53.10
2023-02-17T07:32:16.836Z,53.10
2023-02-17T07:34:47.020Z,53.10
2023-02-17T07:37:15.711Z,53.30
2023-02-17T07:39:44.336Z,53.20
2023-02-17T07:42:12.995Z,53.20
2023-02-17T07:44:41.590Z,53.30
2023-02-17T07:47:10.240Z,53.30
2023-02-17T07:49:38.795Z,53.30
2023-02-17T07:52:09.153Z,53.40
2023-02-17T07:54:38.137Z,53.60
2023-02-17T07:57:06.720Z,53.50
2023-02-17T07:59:35.336Z,54.20
2023-02-17T08:02:04.385Z,53.60
2023-02-17T08:04:33.752Z,53.60
2023-02-17T08:07:02.447Z,53.60
2023-02-17T08:09:52.527Z,53.70
2023-02-17T08:12:40.689Z,53.80
2023-02-17T08:15:12.193Z,53.70
2023-02-17T08:17:40.881Z,53.80
2023-02-17T08:20:13.501Z,53.70
2023-02-17T08:22:42.208Z,53.90
2023-02-17T08:25:12.290Z,53.90
2023-02-17T08:27:40.980Z,54.00
2023-02-17T08:30:11.192Z,54.00
2023-02-17T08:32:40.099Z,54.00
2023-02-17T08:35:10.562Z,54.00
2023-02-17T08:37:39.184Z,54.00
2023-02-17T08:40:11.342Z,54.00
2023-02-17T08:42:40.033Z,54.10
2023-02-17T08:45:09.481Z,54.10
2023-02-17T08:47:38.091Z,54.10
2023-02-17T08:50:10.022Z,54.10
2023-02-17T08:52:38.694Z,54.30
2023-02-17T08:55:08.034Z,54.20
2023-02-17T08:57:38.341Z,54.90
2023-02-17T09:00:11.004Z,54.30
2023-02-17T09:02:42.742Z,54.50
2023-02-17T09:05:14.274Z,54.30
2023-02-17T09:07:43.300Z,54.30
2023-02-17T09:10:16.599Z,54.30
2023-02-17T09:12:46.660Z,54.50
2023-02-17T09:15:15.274Z,54.40
2023-02-17T09:17:44.036Z,54.30
2023-02-17T09:20:24.365Z,54.30
2023-02-17T09:22:53.730Z,54.40
2023-02-17T09:25:23.970Z,54.40
2023-02-17T09:27:54.028Z,54.50
2023-02-17T09:30:22.929Z,54.60
2023-02-17T09:32:51.671Z,54.50
2023-02-17T09:35:20.932Z,54.60
2023-02-17T09:37:49.722Z,54.60
2023-02-17T09:40:22.993Z,54.70
2023-02-17T09:42:53.088Z,54.90
2023-02-17T09:45:27.670Z,54.80
2023-02-17T09:48:04.844Z,55.00
2023-02-17T09:50:41.430Z,55.10
2023-02-17T09:53:17.638Z,55.10
2023-02-17T09:55:51.523Z,55.20
2023-02-17T09:58:25.468Z,55.10
2023-02-17T10:00:58.510Z,55.30
2023-02-17T10:03:32.598Z,55.20
2023-02-17T10:06:14.657Z,55.30
2023-02-17T10:08:50.399Z,55.50
2023-02-17T10:11:29.653Z,55.40
2023-02-17T10:14:04.664Z,55.40
2023-02-17T10:16:40.001Z,55.40
2023-02-17T10:19:15.503Z,55.40
2023-02-17T10:21:49.860Z,55.50
2023-02-17T10:24:18.668Z,55.40
2023-02-17T10:26:58.997Z,55.30
2023-02-17T10:29:40.409Z,55.70
2023-02-17T10:32:23.452Z,55.80
2023-02-17T10:35:15.572Z,55.90
2023-02-17T10:37:49.317Z,55.90
2023-02-17T10:40:24.662Z,55.60
2023-02-17T10:42:58.077Z,55.80
2023-02-17T10:45:33.566Z,55.60
2023-02-17T10:48:09.147Z,55.90
2023-02-17T10:50:39.302Z,55.90
2023-02-17T10:53:17.422Z,55.70
2023-02-17T10:55:57.397Z,56.10
2023-02-17T10:58:32.640Z,56.10
2023-02-17T11:01:05.513Z,55.90
2023-02-17T11:03:36.940Z,55.90
2023-02-17T11:06:17.668Z,55.90
2023-02-17T11:08:51.064Z,56.10
2023-02-17T11:11:23.003Z,56.00
2023-02-17T11:14:11.177Z,56.10
2023-02-17T11:16:45.637Z,56.40
2023-02-17T11:19:25.890Z,56.10
2023-02-17T11:21:57.231Z,56.50
2023-02-17T11:24:26.296Z,56.00
2023-02-17T11:27:00.544Z,56.10
2023-02-17T11:29:30.381Z,56.40
2023-02-17T11:32:04.944Z,56.20
2023-02-17T11:34:36.151Z,56.40
2023-02-17T11:37:21.438Z,56.20
2023-02-17T11:39:53.450Z,56.50
2023-02-17T11:42:24.202Z,56.30
2023-02-17T11:44:53.768Z,56.30
2023-02-17T11:47:36.074Z,56.30
2023-02-17T11:50:31.961Z,56.70
2023-02-17T11:53:20.646Z,56.70
2023-02-17T11:56:06.455Z,56.50
2023-02-17T11:58:57.598Z,56.60
2023-02-17T12:01:49.635Z,56.60
2023-02-17T12:04:43.750Z,56.80
2023-02-17T12:07:41.319Z,56.80
2023-02-17T12:10:20.242Z,56.70
2023-02-17T12:13:06.735Z,56.50
2023-02-17T12:15:57.056Z,56.80
2023-02-17T12:18:43.507Z,56.80
2023-02-17T12:21:21.887Z,56.80
2023-02-17T12:24:37.908Z,56.70
2023-02-17T12:27:28.837Z,57.00
2023-02-17T12:30:17.065Z,56.60
2023-02-17T12:33:03.579Z,56.80
2023-02-17T12:35:51.060Z,56.90
2023-02-17T12:38:27.709Z,57.00
2023-02-17T12:41:06.086Z,56.90
2023-02-17T12:43:42.318Z,56.80
2023-02-17T12:46:14.637Z,56.90
2023-02-17T12:48:49.330Z,56.80
2023-02-17T12:51:23.908Z,56.90
2023-02-17T12:53:58.413Z,56.90
2023-02-17T12:56:51.697Z,57.00
2023-02-17T12:59:23.833Z,57.20
2023-02-17T13:02:01.737Z,57.50
2023-02-17T13:04:32.878Z,57.10
2023-02-17T13:07:44.180Z,56.80
2023-02-17T13:10:35.724Z,57.30
2023-02-17T13:13:07.958Z,57.30
2023-02-17T13:15:40.972Z,56.90
2023-02-17T13:18:14.909Z,57.00
2023-02-17T13:20:59.801Z,57.20
2023-02-17T13:23:38.485Z,57.40
2023-02-17T13:26:30.036Z,57.10
2023-02-17T13:29:34.452Z,57.40
2023-02-17T13:32:06.337Z,57.50
2023-02-17T13:34:38.483Z,57.00
2023-02-17T13:37:22.583Z,57.20
2023-02-17T13:39:51.258Z,57.50
2023-02-17T13:42:40.237Z,57.00
2023-02-17T13:45:27.820Z,57.60
2023-02-17T13:47:59.395Z,57.50
2023-02-17T13:50:33.990Z,57.10
2023-02-17T13:53:04.527Z,57.20
2023-02-17T13:55:33.532Z,57.20
2023-02-17T13:58:03.930Z,57.20
2023-02-17T14:00:34.683Z,57.30
2023-02-17T14:03:17.744Z,57.20
2023-02-17T14:05:48.708Z,57.60
2023-02-17T14:08:25.369Z,57.20
2023-02-17T14:10:54.555Z,57.40
2023-02-17T14:13:25.872Z,57.20
2023-02-17T14:15:57.763Z,57.40
2023-02-17T14:18:33.830Z,57.40
2023-02-17T14:21:09.543Z,57.60
2023-02-17T14:23:52.233Z,57.40
2023-02-17T14:26:31.931Z,57.80
2023-02-17T14:29:05.165Z,57.70
2023-02-17T14:31:40.263Z,57.50
2023-02-17T14:34:14.939Z,57.60
2023-02-17T14:36:44.077Z,57.30
2023-02-17T14:39:17.109Z,57.40
2023-02-17T14:41:46.002Z,57.60
2023-02-17T14:44:15.985Z,57.40
2023-02-17T14:46:45.094Z,57.70
2023-02-17T14:49:13.741Z,57.40
2023-02-17T14:51:42.388Z,57.50
2023-02-17T14:54:16.238Z,57.50
2023-02-17T14:56:50.818Z,57.80
2023-02-17T14:59:20.849Z,57.60
2023-02-17T15:01:49.493Z,57.60
2023-02-17T15:04:18.184Z,57.50
2023-02-17T15:06:50.734Z,57.50
2023-02-17T15:09:22.393Z,57.80
2023-02-17T15:11:51.752Z,57.70
2023-02-17T15:14:23.163Z,57.60
2023-02-17T15:16:51.975Z,57.80
2023-02-17T15:19:20.715Z,57.60
2023-02-17T15:21:52.140Z,57.60
2023-02-17T15:24:28.245Z,57.80
2023-02-17T15:26:58.795Z,57.80
2023-02-17T15:29:29.221Z,57.70
2023-02-17T15:32:01.416Z,57.80
2023-02-17T15:34:33.882Z,57.80
2023-02-17T15:37:03.477Z,57.90
2023-02-17T15:39:32.210Z,57.80
2023-02-17T15:42:07.479Z,57.80
2023-02-17T15:44:44.291Z,57.90
2023-02-17T15:47:18.141Z,58.10
2023-02-17T15:49:46.857Z,58.00
2023-02-17T15:52:16.534Z,57.80
2023-02-17T15:54:46.312Z,57.90
2023-02-17T15:57:22.384Z,57.90
2023-02-17T15:59:55.034Z,58.20
2023-02-17T16:02:26.226Z,58.00
2023-02-17T16:04:54.875Z,57.90
2023-02-17T16:07:23.586Z,57.90
2023-02-17T16:09:52.253Z,57.90
2023-02-17T16:12:26.734Z,58.00
2023-02-17T16:14:58.146Z,58.00
2023-02-17T16:17:27.673Z,58.10
2023-02-17T16:19:56.341Z,58.00
2023-02-17T16:22:25.009Z,58.00
2023-02-17T16:24:53.584Z,58.00
2023-02-17T16:27:24.121Z,58.10
2023-02-17T16:29:52.798Z,58.10
2023-02-17T16:32:22.864Z,58.10
2023-02-17T16:34:52.027Z,58.20
2023-02-17T16:37:20.776Z,58.10
2023-02-17T16:39:49.390Z,58.10
2023-02-17T16:42:18.025Z,58.10
2023-02-17T16:44:46.947Z,58.20
2023-02-17T16:47:23.933Z,58.20
2023-02-17T16:49:52.812Z,58.40
2023-02-17T16:52:26.280Z,58.20
2023-02-17T16:54:55.314Z,58.40
2023-02-17T16:57:24.498Z,58.20
2023-02-17T16:59:53.443Z,58.20
2023-02-17T17:02:23.490Z,58.30
2023-02-17T17:04:52.329Z,58.30
2023-02-17T17:07:20.965Z,58.20
2023-02-17T17:10:14.728Z,58.30
2023-02-17T17:12:38.299Z,58.30
2023-02-17T17:15:07.557Z,58.20
2023-02-17T17:17:42.623Z,58.30
2023-02-17T17:20:16.895Z,58.50
2023-02-17T17:22:46.725Z,58.50
2023-02-17T17:25:15.880Z,58.30
2023-02-17T17:27:46.065Z,58.30
2023-02-17T17:30:19.742Z,58.30
2023-02-17T17:32:50.120Z,58.50
2023-02-17T17:35:19.079Z,58.40
2023-02-17T17:37:48.337Z,58.30
2023-02-17T17:40:22.206Z,58.30
2023-02-17T17:42:51.384Z,58.40
2023-02-17T17:45:20.236Z,58.40
2023-02-17T17:47:50.370Z,58.40
2023-02-17T17:50:23.849Z,58.40
2023-02-17T17:52:53.490Z,58.40
2023-02-17T17:55:22.157Z,58.40
2023-02-17T17:57:50.790Z,58.40
2023-02-17T18:00:20.819Z,58.40
2023-02-17T18:02:50.856Z,58.40
2023-02-17T18:05:19.786Z,58.40
2023-02-17T18:07:50.089Z,58.40
2023-02-17T18:10:18.967Z,58.40
2023-02-17T18:12:48.971Z,58.40
2023-02-17T18:15:18.628Z,58.40
2023-02-17T18:17:48.487Z,58.40
2023-02-17T18:20:18.789Z,58.40
2023-02-17T18:22:47.652Z,58.50
2023-02-17T18:25:16.293Z,58.40
2023-02-17T18:27:47.407Z,58.40
2023-02-17T18:30:19.293Z,58.50
2023-02-17T18:32:49.051Z,58.50
2023-02-17T18:35:19.714Z,58.40
2023-02-17T18:37:48.633Z,58.50
2023-02-17T18:40:20.639Z,58.40
2023-02-17T18:42:49.617Z,58.50
2023-02-17T18:45:18.714Z,58.40
2023-02-17T18:47:47.451Z,59.10
2023-02-17T18:50:18.548Z,58.40
2023-02-17T18:52:47.213Z,58.40
2023-02-17T18:55:16.603Z,58.40
2023-02-17T18:57:45.868Z,58.50
2023-02-17T19:00:17.201Z,58.50
2023-02-17T19:02:45.936Z,58.50
2023-02-17T19:05:17.491Z,58.40
2023-02-17T19:07:47.707Z,58.40
2023-02-17T19:10:17.320Z,59.20
2023-02-17T19:12:46.076Z,58.50
2023-02-17T19:15:17.312Z,58.40
2023-02-17T19:17:46.822Z,58.40
2023-02-17T19:20:17.181Z,58.40
2023-02-17T19:22:47.330Z,58.40
2023-02-17T19:25:15.994Z,58.40
2023-02-17T19:27:44.723Z,58.50
2023-02-17T19:30:14.912Z,58.50
2023-02-17T19:32:43.600Z,58.50
2023-02-17T19:35:12.262Z,58.50
2023-02-17T19:37:40.918Z,58.40
2023-02-17T19:40:11.986Z,58.40
2023-02-17T19:42:41.328Z,58.60
2023-02-17T19:45:10.446Z,58.50
2023-02-17T19:47:39.123Z,58.40
2023-02-17T19:50:09.342Z,58.40
2023-02-17T19:52:38.622Z,58.50
2023-02-17T19:55:09.782Z,58.50
2023-02-17T19:57:39.888Z,58.40
2023-02-17T20:00:10.858Z,58.50
2023-02-17T20:02:39.668Z,58.50
2023-02-17T20:05:09.061Z,58.40
2023-02-17T20:07:37.681Z,58.50
2023-02-17T20:10:10.706Z,58.50
2023-02-17T20:12:40.953Z,58.50
2023-02-17T20:15:10.627Z,59.20
2023-02-17T20:17:39.951Z,58.40
2023-02-17T20:20:12.477Z,58.40
2023-02-17T20:22:43.940Z,58.60
2023-02-17T20:25:12.581Z,58.40
2023-02-17T20:27:42.580Z,58.40
2023-02-17T20:30:12.519Z,58.50
2023-02-17T20:32:41.313Z,58.40
2023-02-17T20:35:13.323Z,59.10
2023-02-17T20:37:41.923Z,58.50
2023-02-17T20:40:11.368Z,58.40
2023-02-17T20:42:41.388Z,58.50
2023-02-17T20:45:10.308Z,58.40
2023-02-17T20:47:38.971Z,58.50
2023-02-17T20:50:09.383Z,58.50
2023-02-17T20:52:38.059Z,58.50
2023-02-17T20:55:07.296Z,58.40
2023-02-17T20:57:35.950Z,58.50
2023-02-17T21:00:08.211Z,58.50
2023-02-17T21:02:36.944Z,58.50
2023-02-17T21:05:05.810Z,58.50
2023-02-17T21:07:34.483Z,58.50
2023-02-17T21:10:03.352Z,58.50
2023-02-17T21:12:32.094Z,58.50
2023-02-17T21:15:00.698Z,58.50
2023-02-17T21:17:30.800Z,58.50
2023-02-17T21:19:59.414Z,58.50
2023-02-17T21:22:28.083Z,58.50
2023-02-17T21:24:56.939Z,58.50
2023-02-17T21:27:25.620Z,58.50
2023-02-17T21:29:54.363Z,58.50
2023-02-17T21:32:23.043Z,58.50
2023-02-17T21:34:53.260Z,58.50
2023-02-17T21:37:23.523Z,58.50
2023-02-17T21:39:52.480Z,58.50
2023-02-17T21:42:41.126Z,58.50
2023-02-17T21:45:09.870Z,58.50
2023-02-17T21:47:38.535Z,58.40
2023-02-17T21:50:10.075Z,58.40
2023-02-17T21:52:38.723Z,58.60
2023-02-17T21:55:07.676Z,58.50
2023-02-17T21:57:36.267Z,58.50
2023-02-17T22:00:06.462Z,58.50
2023-02-17T22:02:42.030Z,58.50
2023-02-17T22:05:13.316Z,58.50
2023-02-17T22:07:42.098Z,58.50
2023-02-17T22:10:11.311Z,58.50
2023-02-17T22:12:40.042Z,58.60
2023-02-17T22:15:10.885Z,58.50
2023-02-17T22:17:39.552Z,58.60
2023-02-17T22:20:10.232Z,58.60
2023-02-17T22:22:40.222Z,58.60
2023-02-17T22:25:09.245Z,58.60
2023-02-17T22:27:37.850Z,58.60
2023-02-17T22:30:09.070Z,58.60
2023-02-17T22:32:38.167Z,58.60
2023-02-17T22:35:07.460Z,58.60
2023-02-17T22:37:36.242Z,58.60
2023-02-17T22:40:08.695Z,58.70
2023-02-17T22:42:37.423Z,58.70
2023-02-17T22:45:07.605Z,58.60
2023-02-17T22:47:36.265Z,58.60
2023-02-17T22:50:06.200Z,58.60
2023-02-17T22:52:35.964Z,58.70
2023-02-17T22:55:06.884Z,58.70
2023-02-17T22:57:35.631Z,58.70
2023-02-17T23:00:04.624Z,58.70
2023-02-17T23:02:36.046Z,58.70
2023-02-17T23:05:05.075Z,58.80
2023-02-17T23:07:33.728Z,58.70
2023-02-17T23:10:02.390Z,58.70
2023-02-17T23:12:32.778Z,58.70
2023-02-17T23:15:02.332Z,58.80
2023-02-17T23:17:52.008Z,58.80
2023-02-17T23:20:21.061Z,58.70
2023-02-17T23:22:49.827Z,58.70
2023-02-17T23:25:18.676Z,58.80
2023-02-17T23:27:48.701Z,58.80
2023-02-17T23:30:22.217Z,58.80
2023-02-17T23:32:51.105Z,58.90
2023-02-17T23:35:20.259Z,58.80
2023-02-17T23:37:51.299Z,58.80
2023-02-17T23:40:20.650Z,58.90
2023-02-17T23:42:50.668Z,58.80
2023-02-17T23:45:19.593Z,58.90
2023-02-17T23:47:48.216Z,58.90
2023-02-17T23:50:17.299Z,58.90
2023-02-17T23:52:45.996Z,58.90
2023-02-17T23:55:14.591Z,58.90
2023-02-17T23:57:43.263Z,58.90
